sensor_id;sensor_type;location;lat;lon;timestamp;pressure;altitude;pressure_sealevel;temperature;humidity
76124;BME280;65173;48.066;20.976;2022-11-20T00:02:07;100226.63;;;-0.22;83.83
76124;BME280;65173;48.066;20.976;2022-11-20T00:05:10;100210.09;;;-0.23;83.84
76124;BME280;65173;48.066;20.976;2022-11-20T00:08:13;100204.63;;;-0.21;83.81
76124;BME280;65173;48.066;20.976;2022-11-20T00:11:18;100203.88;;;-0.17;84.08
76124;BME280;65173;48.066;20.976;2022-11-20T00:14:22;100237.63;;;-0.20;84.16
76124;BME280;65173;48.066;20.976;2022-11-20T00:17:24;100272.47;;;-0.20;84.10
76124;BME280;65173;48.066;20.976;2022-11-20T00:20:27;100274.59;;;-0.17;83.65
76124;BME280;65173;48.066;20.976;2022-11-20T00:23:30;100258.63;;;-0.15;83.20
76124;BME280;65173;48.066;20.976;2022-11-20T00:26:33;100257.25;;;-0.23;83.93
76124;BME280;65173;48.066;20.976;2022-11-20T00:29:36;100245.78;;;-0.17;84.29
76124;BME280;65173;48.066;20.976;2022-11-20T00:32:39;100241.53;;;-0.23;84.15
76124;BME280;65173;48.066;20.976;2022-11-20T00:35:41;100230.06;;;-0.17;83.65
76124;BME280;65173;48.066;20.976;2022-11-20T00:38:44;100236.34;;;-0.18;83.83
76124;BME280;65173;48.066;20.976;2022-11-20T00:41:48;100258.63;;;-0.15;82.75
76124;BME280;65173;48.066;20.976;2022-11-20T00:44:50;100269.63;;;-0.18;83.62
76124;BME280;65173;48.066;20.976;2022-11-20T00:47:53;100283.06;;;-0.10;83.25
76124;BME280;65173;48.066;20.976;2022-11-20T00:50:56;100286.97;;;-0.12;83.21
76124;BME280;65173;48.066;20.976;2022-11-20T00:53:58;100286.66;;;-0.16;83.50
76124;BME280;65173;48.066;20.976;2022-11-20T00:57:02;100281.63;;;-0.01;82.45
76124;BME280;65173;48.066;20.976;2022-11-20T01:00:06;100273.16;;;-0.08;83.39
76124;BME280;65173;48.066;20.976;2022-11-20T01:03:08;100286.00;;;-0.06;82.77
76124;BME280;65173;48.066;20.976;2022-11-20T01:09:20;100281.09;;;-0.03;83.66
76124;BME280;65173;48.066;20.976;2022-11-20T01:12:23;100276.63;;;-0.02;83.77
76124;BME280;65173;48.066;20.976;2022-11-20T01:15:26;100268.94;;;-0.09;83.48
76124;BME280;65173;48.066;20.976;2022-11-20T01:18:28;100262.50;;;-0.01;83.58
76124;BME280;65173;48.066;20.976;2022-11-20T01:21:36;100250.69;;;-0.04;83.49
76124;BME280;65173;48.066;20.976;2022-11-20T01:24:40;100256.41;;;-0.07;83.58
76124;BME280;65173;48.066;20.976;2022-11-20T01:27:42;100249.66;;;-0.03;83.49
76124;BME280;65173;48.066;20.976;2022-11-20T01:30:45;100254.09;;;-0.03;83.86
76124;BME280;65173;48.066;20.976;2022-11-20T01:33:49;100254.38;;;0.00;83.83
76124;BME280;65173;48.066;20.976;2022-11-20T01:36:53;100258.66;;;0.07;83.70
76124;BME280;65173;48.066;20.976;2022-11-20T01:39:56;100255.16;;;0.01;83.44
76124;BME280;65173;48.066;20.976;2022-11-20T01:43:18;100258.66;;;0.07;83.62
76124;BME280;65173;48.066;20.976;2022-11-20T01:46:24;100233.97;;;0.03;83.19
76124;BME280;65173;48.066;20.976;2022-11-20T01:49:39;100222.41;;;-0.02;84.12
76124;BME280;65173;48.066;20.976;2022-11-20T01:52:51;100199.88;;;-0.03;83.91
76124;BME280;65173;48.066;20.976;2022-11-20T01:55:57;100184.63;;;-0.06;83.92
76124;BME280;65173;48.066;20.976;2022-11-20T01:59:03;100172.09;;;-0.04;83.84
76124;BME280;65173;48.066;20.976;2022-11-20T02:02:07;100161.13;;;-0.01;83.68
76124;BME280;65173;48.066;20.976;2022-11-20T02:05:22;100165.81;;;-0.03;83.08
76124;BME280;65173;48.066;20.976;2022-11-20T02:08:26;100164.00;;;-0.02;83.76
76124;BME280;65173;48.066;20.976;2022-11-20T02:11:30;100165.03;;;-0.03;83.25
76124;BME280;65173;48.066;20.976;2022-11-20T02:14:33;100183.38;;;-0.03;83.40
76124;BME280;65173;48.066;20.976;2022-11-20T02:17:36;100188.41;;;0.04;83.47
76124;BME280;65173;48.066;20.976;2022-11-20T02:20:42;100200.22;;;0.06;82.70
76124;BME280;65173;48.066;20.976;2022-11-20T02:24:04;100210.38;;;0.03;82.33
76124;BME280;65173;48.066;20.976;2022-11-20T02:27:15;100197.28;;;0.03;82.90
76124;BME280;65173;48.066;20.976;2022-11-20T02:30:18;100196.75;;;0.00;82.77
76124;BME280;65173;48.066;20.976;2022-11-20T02:33:21;100195.22;;;0.05;81.96
76124;BME280;65173;48.066;20.976;2022-11-20T02:36:26;100196.75;;;0.00;82.31
76124;BME280;65173;48.066;20.976;2022-11-20T02:39:30;100198.38;;;0.07;82.21
76124;BME280;65173;48.066;20.976;2022-11-20T02:42:32;100189.97;;;0.05;82.16
76124;BME280;65173;48.066;20.976;2022-11-20T02:45:35;100176.56;;;0.01;82.49
76124;BME280;65173;48.066;20.976;2022-11-20T02:48:38;100172.13;;;0.02;82.84
76124;BME280;65173;48.066;20.976;2022-11-20T02:51:41;100166.47;;;0.10;82.85
76124;BME280;65173;48.066;20.976;2022-11-20T02:54:44;100161.78;;;0.12;83.52
76124;BME280;65173;48.066;20.976;2022-11-20T02:57:47;100173.34;;;0.16;82.54
76124;BME280;65173;48.066;20.976;2022-11-20T03:00:49;100168.53;;;0.08;83.24
76124;BME280;65173;48.066;20.976;2022-11-20T03:03:53;100162.44;;;0.02;83.10
76124;BME280;65173;48.066;20.976;2022-11-20T03:06:56;100151.47;;;0.05;82.80
76124;BME280;65173;48.066;20.976;2022-11-20T03:10:00;100146.97;;;0.00;83.28
76124;BME280;65173;48.066;20.976;2022-11-20T03:13:02;100140.44;;;0.03;82.91
76124;BME280;65173;48.066;20.976;2022-11-20T03:16:16;100125.03;;;0.07;82.51
76124;BME280;65173;48.066;20.976;2022-11-20T03:19:19;100121.31;;;0.03;83.11
76124;BME280;65173;48.066;20.976;2022-11-20T03:22:22;100133.38;;;0.04;82.88
76124;BME280;65173;48.066;20.976;2022-11-20T03:25:25;100132.00;;;-0.04;83.67
76124;BME280;65173;48.066;20.976;2022-11-20T03:28:28;100134.88;;;-0.06;83.57
76124;BME280;65173;48.066;20.976;2022-11-20T03:31:33;100136.16;;;-0.08;83.88
76124;BME280;65173;48.066;20.976;2022-11-20T03:34:37;100152.16;;;-0.05;84.34
76124;BME280;65173;48.066;20.976;2022-11-20T03:37:39;100162.88;;;-0.06;83.76
76124;BME280;65173;48.066;20.976;2022-11-20T03:40:42;100159.72;;;-0.08;84.18
76124;BME280;65173;48.066;20.976;2022-11-20T03:43:52;100141.06;;;-0.12;84.12
76124;BME280;65173;48.066;20.976;2022-11-20T03:46:55;100138.63;;;0.04;83.57
76124;BME280;65173;48.066;20.976;2022-11-20T03:49:58;100132.97;;;-0.10;84.22
76124;BME280;65173;48.066;20.976;2022-11-20T03:53:01;100143.28;;;-0.04;83.79
76124;BME280;65173;48.066;20.976;2022-11-20T03:56:04;100147.19;;;-0.06;83.78
76124;BME280;65173;48.066;20.976;2022-11-20T03:59:10;100133.53;;;-0.08;83.72
76124;BME280;65173;48.066;20.976;2022-11-20T04:02:13;100129.69;;;-0.01;83.69
76124;BME280;65173;48.066;20.976;2022-11-20T04:05:16;100120.34;;;0.09;82.93
76124;BME280;65173;48.066;20.976;2022-11-20T04:08:18;100118.75;;;0.08;83.09
76124;BME280;65173;48.066;20.976;2022-11-20T04:11:24;100113.41;;;-0.03;83.20
76124;BME280;65173;48.066;20.976;2022-11-20T04:14:26;100117.25;;;-0.10;83.36
76124;BME280;65173;48.066;20.976;2022-11-20T04:17:29;100121.72;;;-0.11;83.16
76124;BME280;65173;48.066;20.976;2022-11-20T04:20:32;100125.84;;;-0.15;82.96
76124;BME280;65173;48.066;20.976;2022-11-20T04:23:36;100137.09;;;-0.19;83.63
76124;BME280;65173;48.066;20.976;2022-11-20T04:26:39;100137.34;;;-0.16;83.96
76124;BME280;65173;48.066;20.976;2022-11-20T04:29:42;100131.53;;;-0.23;84.12
76124;BME280;65173;48.066;20.976;2022-11-20T04:32:45;100127.09;;;-0.22;84.17
76124;BME280;65173;48.066;20.976;2022-11-20T04:35:48;100131.88;;;-0.14;83.64
76124;BME280;65173;48.066;20.976;2022-11-20T04:38:52;100119.81;;;-0.15;82.86
76124;BME280;65173;48.066;20.976;2022-11-20T04:41:58;100114.78;;;-0.22;83.62
76124;BME280;65173;48.066;20.976;2022-11-20T04:45:24;100099.16;;;-0.12;83.73
76124;BME280;65173;48.066;20.976;2022-11-20T04:48:28;100094.63;;;-0.21;83.14
76124;BME280;65173;48.066;20.976;2022-11-20T04:51:31;100099.00;;;-0.27;82.79
76124;BME280;65173;48.066;20.976;2022-11-20T04:54:34;100092.56;;;-0.19;83.54
76124;BME280;65173;48.066;20.976;2022-11-20T04:57:36;100098.84;;;-0.20;82.59
76124;BME280;65173;48.066;20.976;2022-11-20T05:00:39;100098.78;;;-0.25;83.05
76124;BME280;65173;48.066;20.976;2022-11-20T05:03:43;100101.69;;;-0.22;83.07
76124;BME280;65173;48.066;20.976;2022-11-20T05:06:47;100104.81;;;-0.25;83.14
76124;BME280;65173;48.066;20.976;2022-11-20T05:09:49;100098.53;;;-0.24;83.12
76124;BME280;65173;48.066;20.976;2022-11-20T05:12:52;100081.22;;;-0.25;83.02
76124;BME280;65173;48.066;20.976;2022-11-20T05:15:55;100098.47;;;-0.29;83.45
76124;BME280;65173;48.066;20.976;2022-11-20T05:18:58;100078.91;;;-0.21;82.59
76124;BME280;65173;48.066;20.976;2022-11-20T05:22:01;100068.22;;;-0.15;82.87
76124;BME280;65173;48.066;20.976;2022-11-20T05:25:04;100062.97;;;-0.20;82.54
76124;BME280;65173;48.066;20.976;2022-11-20T05:28:07;100062.72;;;-0.18;82.99
76124;BME280;65173;48.066;20.976;2022-11-20T05:31:12;100060.84;;;-0.23;83.07
76124;BME280;65173;48.066;20.976;2022-11-20T05:34:15;100074.97;;;-0.24;83.31
76124;BME280;65173;48.066;20.976;2022-11-20T05:37:18;100063.31;;;-0.33;82.98
76124;BME280;65173;48.066;20.976;2022-11-20T05:40:21;100064.66;;;-0.30;82.62
76124;BME280;65173;48.066;20.976;2022-11-20T05:43:23;100042.91;;;-0.36;82.54
76124;BME280;65173;48.066;20.976;2022-11-20T05:46:26;100047.59;;;-0.38;82.41
76124;BME280;65173;48.066;20.976;2022-11-20T05:49:31;100042.63;;;-0.35;82.53
76124;BME280;65173;48.066;20.976;2022-11-20T05:52:34;100041.59;;;-0.33;81.94
76124;BME280;65173;48.066;20.976;2022-11-20T05:55:37;100055.84;;;-0.24;82.35
76124;BME280;65173;48.066;20.976;2022-11-20T05:58:40;100045.31;;;-0.29;82.69
76124;BME280;65173;48.066;20.976;2022-11-20T06:01:43;100050.53;;;-0.29;81.76
76124;BME280;65173;48.066;20.976;2022-11-20T06:04:45;100041.94;;;-0.25;82.09
76124;BME280;65173;48.066;20.976;2022-11-20T06:07:48;100049.50;;;-0.28;81.78
76124;BME280;65173;48.066;20.976;2022-11-20T06:10:51;100049.31;;;-0.22;82.07
76124;BME280;65173;48.066;20.976;2022-11-20T06:13:54;100048.78;;;-0.24;81.53
76124;BME280;65173;48.066;20.976;2022-11-20T06:16:56;100030.38;;;-0.29;81.56
76124;BME280;65173;48.066;20.976;2022-11-20T06:20:00;100040.84;;;-0.29;81.73
76124;BME280;65173;48.066;20.976;2022-11-20T06:23:03;100046.47;;;-0.15;81.42
76124;BME280;65173;48.066;20.976;2022-11-20T06:26:11;100058.53;;;-0.14;81.64
76124;BME280;65173;48.066;20.976;2022-11-20T06:29:14;100058.66;;;-0.04;80.73
76124;BME280;65173;48.066;20.976;2022-11-20T06:32:17;100044.28;;;0.04;81.47
76124;BME280;65173;48.066;20.976;2022-11-20T06:35:20;100046.22;;;0.13;81.12
76124;BME280;65173;48.066;20.976;2022-11-20T06:38:23;100044.97;;;0.21;80.56
76124;BME280;65173;48.066;20.976;2022-11-20T06:41:26;100046.78;;;0.20;80.41
76124;BME280;65173;48.066;20.976;2022-11-20T06:44:30;100049.22;;;0.27;80.62
76124;BME280;65173;48.066;20.976;2022-11-20T06:47:33;100046.34;;;0.28;79.98
76124;BME280;65173;48.066;20.976;2022-11-20T06:50:36;100048.72;;;0.30;80.18
76124;BME280;65173;48.066;20.976;2022-11-20T06:53:39;100051.34;;;0.30;81.00
76124;BME280;65173;48.066;20.976;2022-11-20T06:56:42;100047.63;;;0.26;81.07
76124;BME280;65173;48.066;20.976;2022-11-20T06:59:44;100048.13;;;0.23;81.14
76124;BME280;65173;48.066;20.976;2022-11-20T07:02:47;100068.09;;;0.29;81.90
76124;BME280;65173;48.066;20.976;2022-11-20T07:05:50;100066.59;;;0.38;82.03
76124;BME280;65173;48.066;20.976;2022-11-20T07:08:53;100059.91;;;0.52;81.66
76124;BME280;65173;48.066;20.976;2022-11-20T07:11:55;100051.94;;;0.42;81.27
76124;BME280;65173;48.066;20.976;2022-11-20T07:14:58;100050.72;;;0.55;81.11
76124;BME280;65173;48.066;20.976;2022-11-20T07:18:01;100057.53;;;0.56;81.36
76124;BME280;65173;48.066;20.976;2022-11-20T07:21:07;100051.09;;;0.74;81.18
76124;BME280;65173;48.066;20.976;2022-11-20T07:24:10;100036.53;;;0.93;80.87
76124;BME280;65173;48.066;20.976;2022-11-20T07:27:13;100032.91;;;1.04;79.49
76124;BME280;65173;48.066;20.976;2022-11-20T07:30:16;100033.72;;;1.04;80.07
76124;BME280;65173;48.066;20.976;2022-11-20T07:33:19;100051.78;;;1.01;81.25
76124;BME280;65173;48.066;20.976;2022-11-20T07:36:22;100062.31;;;1.06;80.68
76124;BME280;65173;48.066;20.976;2022-11-20T07:39:25;100054.44;;;1.06;80.43
76124;BME280;65173;48.066;20.976;2022-11-20T07:42:28;100046.56;;;1.11;79.81
76124;BME280;65173;48.066;20.976;2022-11-20T07:45:31;100043.47;;;1.19;80.32
76124;BME280;65173;48.066;20.976;2022-11-20T07:48:33;100048.72;;;1.19;79.72
76124;BME280;65173;48.066;20.976;2022-11-20T07:51:36;100053.69;;;1.16;80.27
76124;BME280;65173;48.066;20.976;2022-11-20T07:54:39;100052.69;;;1.22;79.76
76124;BME280;65173;48.066;20.976;2022-11-20T07:57:42;100050.34;;;1.30;79.50
76124;BME280;65173;48.066;20.976;2022-11-20T08:00:45;100044.53;;;1.28;79.21
76124;BME280;65173;48.066;20.976;2022-11-20T08:03:48;100061.34;;;1.22;79.93
76124;BME280;65173;48.066;20.976;2022-11-20T08:06:51;100059.22;;;1.19;80.80
76124;BME280;65173;48.066;20.976;2022-11-20T08:09:55;100047.19;;;1.28;80.85
76124;BME280;65173;48.066;20.976;2022-11-20T08:12:57;100042.25;;;1.42;79.59
76124;BME280;65173;48.066;20.976;2022-11-20T08:16:19;100058.00;;;1.47;79.48
76124;BME280;65173;48.066;20.976;2022-11-20T08:19:22;100056.44;;;1.46;78.41
76124;BME280;65173;48.066;20.976;2022-11-20T08:22:25;100088.47;;;1.43;79.30
76124;BME280;65173;48.066;20.976;2022-11-20T08:25:29;100104.47;;;1.42;78.98
76124;BME280;65173;48.066;20.976;2022-11-20T08:28:32;100106.84;;;1.43;77.77
76124;BME280;65173;48.066;20.976;2022-11-20T08:31:35;100093.97;;;1.42;77.39
76124;BME280;65173;48.066;20.976;2022-11-20T08:34:38;100094.25;;;1.50;78.08
76124;BME280;65173;48.066;20.976;2022-11-20T08:37:40;100091.44;;;1.67;78.12
76124;BME280;65173;48.066;20.976;2022-11-20T08:40:44;100102.53;;;1.79;77.50
76124;BME280;65173;48.066;20.976;2022-11-20T08:44:07;100107.75;;;1.84;75.89
76124;BME280;65173;48.066;20.976;2022-11-20T08:47:10;100120.13;;;1.79;76.84
76124;BME280;65173;48.066;20.976;2022-11-20T08:50:14;100115.91;;;1.83;77.25
76124;BME280;65173;48.066;20.976;2022-11-20T08:53:17;100108.28;;;1.81;75.67
76124;BME280;65173;48.066;20.976;2022-11-20T08:56:20;100113.53;;;1.76;76.63
76124;BME280;65173;48.066;20.976;2022-11-20T08:59:23;100109.09;;;1.87;75.46
76124;BME280;65173;48.066;20.976;2022-11-20T09:02:46;100104.38;;;1.99;75.15
76124;BME280;65173;48.066;20.976;2022-11-20T09:05:48;100098.38;;;2.14;74.69
76124;BME280;65173;48.066;20.976;2022-11-20T09:08:55;100101.78;;;2.24;74.81
76124;BME280;65173;48.066;20.976;2022-11-20T09:12:01;100101.00;;;2.24;75.34
76124;BME280;65173;48.066;20.976;2022-11-20T09:15:03;100116.28;;;2.42;75.11
76124;BME280;65173;48.066;20.976;2022-11-20T09:18:06;100109.19;;;2.48;74.12
76124;BME280;65173;48.066;20.976;2022-11-20T09:21:10;100103.13;;;2.62;75.71
76124;BME280;65173;48.066;20.976;2022-11-20T09:24:14;100119.16;;;2.66;75.27
76124;BME280;65173;48.066;20.976;2022-11-20T09:27:17;100104.97;;;2.62;73.94
76124;BME280;65173;48.066;20.976;2022-11-20T09:30:26;100101.25;;;2.73;73.74
76124;BME280;65173;48.066;20.976;2022-11-20T09:33:29;100087.03;;;2.79;74.11
76124;BME280;65173;48.066;20.976;2022-11-20T09:36:32;100081.78;;;2.74;74.11
76124;BME280;65173;48.066;20.976;2022-11-20T09:39:35;100080.19;;;2.73;74.27
76124;BME280;65173;48.066;20.976;2022-11-20T09:42:47;100075.47;;;2.80;75.38
76124;BME280;65173;48.066;20.976;2022-11-20T09:52:37;100068.75;;;3.23;73.71
76124;BME280;65173;48.066;20.976;2022-11-20T09:55:45;100060.47;;;3.50;73.73
76124;BME280;65173;48.066;20.976;2022-11-20T09:58:52;100060.75;;;3.54;73.25
76124;BME280;65173;48.066;20.976;2022-11-20T10:01:58;100074.44;;;3.56;73.28
76124;BME280;65173;48.066;20.976;2022-11-20T10:05:18;100065.69;;;3.60;72.70
76124;BME280;65173;48.066;20.976;2022-11-20T10:15:19;100044.75;;;3.79;72.03
76124;BME280;65173;48.066;20.976;2022-11-20T10:25:39;100047.75;;;3.67;71.80
76124;BME280;65173;48.066;20.976;2022-11-20T10:29:02;100057.25;;;3.63;71.32
76124;BME280;65173;48.066;20.976;2022-11-20T10:32:17;100015.84;;;3.69;70.16
76124;BME280;65173;48.066;20.976;2022-11-20T10:38:44;100020.31;;;3.73;69.92
76124;BME280;65173;48.066;20.976;2022-11-20T10:41:52;100008.72;;;3.69;70.75
76124;BME280;65173;48.066;20.976;2022-11-20T10:45:06;100017.44;;;3.65;70.06
76124;BME280;65173;48.066;20.976;2022-11-20T10:58:45;100035.13;;;3.59;72.63
76124;BME280;65173;48.066;20.976;2022-11-20T11:01:51;100032.44;;;3.69;71.75
76124;BME280;65173;48.066;20.976;2022-11-20T11:04:54;100045.09;;;3.67;70.89
76124;BME280;65173;48.066;20.976;2022-11-20T11:07:58;100049.06;;;3.65;71.35
76124;BME280;65173;48.066;20.976;2022-11-20T11:14:19;100047.66;;;3.77;73.75
76124;BME280;65173;48.066;20.976;2022-11-20T11:17:24;100044.19;;;3.87;72.59
76124;BME280;65173;48.066;20.976;2022-11-20T11:20:50;100038.66;;;3.89;70.39
76124;BME280;65173;48.066;20.976;2022-11-20T11:24:01;100035.75;;;3.90;70.07
76124;BME280;65173;48.066;20.976;2022-11-20T11:27:24;100027.59;;;3.87;70.65
76124;BME280;65173;48.066;20.976;2022-11-20T11:30:28;100028.94;;;3.84;70.05
76124;BME280;65173;48.066;20.976;2022-11-20T11:33:32;100043.97;;;3.78;71.65
76124;BME280;65173;48.066;20.976;2022-11-20T11:36:38;100048.41;;;3.88;70.69
76124;BME280;65173;48.066;20.976;2022-11-20T11:39:42;100042.34;;;3.88;71.47
76124;BME280;65173;48.066;20.976;2022-11-20T11:42:56;100022.34;;;3.81;71.69
76124;BME280;65173;48.066;20.976;2022-11-20T11:46:00;100011.53;;;3.83;72.27
76124;BME280;65173;48.066;20.976;2022-11-20T11:52:20;99998.78;;;3.95;72.88
76124;BME280;65173;48.066;20.976;2022-11-20T11:55:42;99990.78;;;4.10;72.94
76124;BME280;65173;48.066;20.976;2022-11-20T11:58:51;99991.19;;;4.23;74.79
76124;BME280;65173;48.066;20.976;2022-11-20T12:01:58;100000.94;;;4.51;74.07
76124;BME280;65173;48.066;20.976;2022-11-20T12:11:54;99993.69;;;4.85;72.52
76124;BME280;65173;48.066;20.976;2022-11-20T12:14:59;99990.59;;;4.83;71.84
76124;BME280;65173;48.066;20.976;2022-11-20T12:18:09;99980.50;;;5.09;72.60
76124;BME280;65173;48.066;20.976;2022-11-20T12:28:03;100013.34;;;5.22;70.53
76124;BME280;65173;48.066;20.976;2022-11-20T12:38:12;99999.59;;;5.44;70.28
76124;BME280;65173;48.066;20.976;2022-11-20T12:51:30;99986.88;;;5.03;70.70
76124;BME280;65173;48.066;20.976;2022-11-20T12:54:49;100002.31;;;4.96;71.89
76124;BME280;65173;48.066;20.976;2022-11-20T12:58:18;100012.88;;;4.96;71.28
76124;BME280;65173;48.066;20.976;2022-11-20T13:08:38;100005.22;;;4.71;72.50
76124;BME280;65173;48.066;20.976;2022-11-20T13:12:07;100009.56;;;4.62;70.34
76124;BME280;65173;48.066;20.976;2022-11-20T13:15:40;100011.16;;;4.58;70.47
76124;BME280;65173;48.066;20.976;2022-11-20T13:18:48;100023.63;;;4.52;71.68
76124;BME280;65173;48.066;20.976;2022-11-20T13:21:51;99993.81;;;4.51;72.17
76124;BME280;65173;48.066;20.976;2022-11-20T13:24:54;99975.00;;;4.58;71.59
76124;BME280;65173;48.066;20.976;2022-11-20T13:31:29;99963.94;;;4.56;71.17
76124;BME280;65173;48.066;20.976;2022-11-20T13:34:33;99952.13;;;4.48;71.47
76124;BME280;65173;48.066;20.976;2022-11-20T13:37:37;99964.06;;;4.46;72.54
76124;BME280;65173;48.066;20.976;2022-11-20T13:40:56;99967.97;;;4.48;71.65
76124;BME280;65173;48.066;20.976;2022-11-20T13:47:22;99967.03;;;4.39;71.26
76124;BME280;65173;48.066;20.976;2022-11-20T13:50:39;99972.44;;;4.24;72.74
76124;BME280;65173;48.066;20.976;2022-11-20T13:54:01;99980.91;;;4.21;72.35
76124;BME280;65173;48.066;20.976;2022-11-20T14:00:58;99971.84;;;4.03;73.59
76124;BME280;65173;48.066;20.976;2022-11-20T14:04:14;99978.44;;;4.01;73.23
76124;BME280;65173;48.066;20.976;2022-11-20T14:07:24;99999.13;;;3.89;73.82
76124;BME280;65173;48.066;20.976;2022-11-20T14:10:29;100010.38;;;3.94;73.69
76124;BME280;65173;48.066;20.976;2022-11-20T14:13:34;100007.84;;;3.84;73.95
76124;BME280;65173;48.066;20.976;2022-11-20T14:16:37;100001.53;;;3.80;74.85
76124;BME280;65173;48.066;20.976;2022-11-20T14:19:41;99998.19;;;3.69;74.12
76124;BME280;65173;48.066;20.976;2022-11-20T14:22:49;99999.78;;;3.65;74.69
76124;BME280;65173;48.066;20.976;2022-11-20T14:25:53;99987.94;;;3.63;76.20
76124;BME280;65173;48.066;20.976;2022-11-20T14:28:56;99985.38;;;3.58;76.35
76124;BME280;65173;48.066;20.976;2022-11-20T14:31:59;99971.94;;;3.54;77.03
76124;BME280;65173;48.066;20.976;2022-11-20T14:35:08;99979.31;;;3.52;76.57
76124;BME280;65173;48.066;20.976;2022-11-20T14:38:14;99988.06;;;3.42;76.43
76124;BME280;65173;48.066;20.976;2022-11-20T14:41:22;99986.28;;;3.38;77.16
76124;BME280;65173;48.066;20.976;2022-11-20T14:44:33;99991.03;;;3.31;76.67
76124;BME280;65173;48.066;20.976;2022-11-20T14:47:40;99995.59;;;3.15;76.28
76124;BME280;65173;48.066;20.976;2022-11-20T14:50:44;100001.41;;;3.12;77.19
76124;BME280;65173;48.066;20.976;2022-11-20T14:53:48;100004.56;;;3.09;78.02
76124;BME280;65173;48.066;20.976;2022-11-20T14:56:55;100005.09;;;3.06;78.76
76124;BME280;65173;48.066;20.976;2022-11-20T15:03:15;99991.75;;;2.87;78.60
76124;BME280;65173;48.066;20.976;2022-11-20T15:06:25;100002.03;;;2.84;78.95
76124;BME280;65173;48.066;20.976;2022-11-20T15:09:28;100000.72;;;2.86;79.99
76124;BME280;65173;48.066;20.976;2022-11-20T15:12:34;100014.94;;;2.85;80.78
76124;BME280;65173;48.066;20.976;2022-11-20T15:18:44;99997.25;;;2.91;79.12
76124;BME280;65173;48.066;20.976;2022-11-20T15:21:47;99997.56;;;2.84;78.96
76124;BME280;65173;48.066;20.976;2022-11-20T15:24:50;100005.19;;;2.75;79.18
76124;BME280;65173;48.066;20.976;2022-11-20T15:27:55;100012.09;;;2.66;80.22
76124;BME280;65173;48.066;20.976;2022-11-20T15:30:59;100001.03;;;2.54;80.60
76124;BME280;65173;48.066;20.976;2022-11-20T15:34:05;100005.81;;;2.47;81.59
76124;BME280;65173;48.066;20.976;2022-11-20T15:37:10;100000.53;;;2.47;81.92
76124;BME280;65173;48.066;20.976;2022-11-20T15:40:13;100013.16;;;2.45;82.14
76124;BME280;65173;48.066;20.976;2022-11-20T15:43:16;100011.59;;;2.49;81.38
76124;BME280;65173;48.066;20.976;2022-11-20T15:46:23;100014.50;;;2.32;81.84
76124;BME280;65173;48.066;20.976;2022-11-20T15:49:29;100035.78;;;2.21;83.14
76124;BME280;65173;48.066;20.976;2022-11-20T15:52:31;100039.50;;;2.30;81.91
76124;BME280;65173;48.066;20.976;2022-11-20T15:55:43;100027.38;;;1.98;83.72
76124;BME280;65173;48.066;20.976;2022-11-20T15:58:46;100033.16;;;1.95;84.85
76124;BME280;65173;48.066;20.976;2022-11-20T16:01:49;100035.53;;;1.97;84.56
76124;BME280;65173;48.066;20.976;2022-11-20T16:04:52;100023.69;;;1.89;85.06
76124;BME280;65173;48.066;20.976;2022-11-20T16:07:55;100035.53;;;1.97;84.98
76124;BME280;65173;48.066;20.976;2022-11-20T16:10:58;100035.25;;;1.83;84.79
76124;BME280;65173;48.066;20.976;2022-11-20T16:14:02;100031.84;;;1.78;84.62
76124;BME280;65173;48.066;20.976;2022-11-20T16:17:24;100037.31;;;1.66;85.40
76124;BME280;65173;48.066;20.976;2022-11-20T16:20:47;100023.34;;;1.45;86.21
76124;BME280;65173;48.066;20.976;2022-11-20T16:23:50;100020.94;;;1.33;86.67
76124;BME280;65173;48.066;20.976;2022-11-20T16:26:53;100012.50;;;1.26;86.84
76124;BME280;65173;48.066;20.976;2022-11-20T16:29:56;100009.41;;;1.34;86.09
76124;BME280;65173;48.066;20.976;2022-11-20T16:33:00;100019.59;;;1.21;85.98
76124;BME280;65173;48.066;20.976;2022-11-20T16:36:14;100014.59;;;1.19;84.77
76124;BME280;65173;48.066;20.976;2022-11-20T16:39:17;100009.56;;;1.02;85.94
76124;BME280;65173;48.066;20.976;2022-11-20T16:42:25;100015.97;;;0.75;87.98
76124;BME280;65173;48.066;20.976;2022-11-20T16:45:28;100015.72;;;0.76;87.16
76124;BME280;65173;48.066;20.976;2022-11-20T16:48:36;100016.34;;;0.98;87.26
76124;BME280;65173;48.066;20.976;2022-11-20T16:51:39;100019.38;;;0.75;87.65
76124;BME280;65173;48.066;20.976;2022-11-20T16:54:42;100021.75;;;0.72;87.63
76124;BME280;65173;48.066;20.976;2022-11-20T16:57:45;100022.50;;;0.72;86.57
76124;BME280;65173;48.066;20.976;2022-11-20T17:00:48;100015.16;;;0.69;86.59
76124;BME280;65173;48.066;20.976;2022-11-20T17:03:56;100004.13;;;0.67;86.78
76124;BME280;65173;48.066;20.976;2022-11-20T17:06:59;99996.97;;;0.57;87.72
76124;BME280;65173;48.066;20.976;2022-11-20T17:10:09;99998.81;;;0.57;87.42
76124;BME280;65173;48.066;20.976;2022-11-20T17:13:12;99991.19;;;0.50;87.68
76124;BME280;65173;48.066;20.976;2022-11-20T17:16:18;99996.34;;;0.40;88.16
76124;BME280;65173;48.066;20.976;2022-11-20T17:19:21;99988.25;;;0.42;87.71
76124;BME280;65173;48.066;20.976;2022-11-20T17:22:24;99984.03;;;0.41;86.38
76124;BME280;65173;48.066;20.976;2022-11-20T17:25:27;99983.28;;;0.45;86.10
76124;BME280;65173;48.066;20.976;2022-11-20T17:28:30;99984.28;;;0.34;85.78
76124;BME280;65173;48.066;20.976;2022-11-20T17:31:34;99978.94;;;0.24;85.88
76124;BME280;65173;48.066;20.976;2022-11-20T17:34:38;99980.00;;;0.23;85.67
76124;BME280;65173;48.066;20.976;2022-11-20T17:37:41;99966.59;;;0.14;86.12
76124;BME280;65173;48.066;20.976;2022-11-20T17:40:44;99964.47;;;0.11;85.91
76124;BME280;65173;48.066;20.976;2022-11-20T17:43:48;99968.63;;;0.07;86.09
76124;BME280;65173;48.066;20.976;2022-11-20T17:46:51;99972.31;;;0.11;85.36